createdAt,value
2022-12-01T00:00:09.245Z,59.21
2022-12-01T00:00:43.975Z,59.03
2022-12-01T00:01:16.960Z,59.07
2022-12-01T00:01:49.169Z,58.66
2022-12-01T00:02:23.996Z,59.06
2022-12-01T00:02:56.228Z,59.35
2022-12-01T00:03:32.054Z,58.81
2022-12-01T00:04:07.059Z,58.80
2022-12-01T00:04:39.124Z,58.78
2022-12-01T00:05:11.240Z,58.63
2022-12-01T00:05:45.919Z,58.74
2022-12-01T00:06:22.017Z,58.38
2022-12-01T00:06:54.151Z,59.04
2022-12-01T00:07:28.834Z,58.96
2022-12-01T00:08:01.544Z,59.19
2022-12-01T00:08:34.404Z,59.48
2022-12-01T00:09:21.526Z,59.09
2022-12-01T00:10:08.622Z,58.96
2022-12-01T00:10:43.308Z,59.28
2022-12-01T00:11:15.375Z,59.25
2022-12-01T00:11:47.724Z,59.12
2022-12-01T00:12:19.882Z,59.12
2022-12-01T00:12:51.979Z,59.20
2022-12-01T00:13:26.653Z,59.20
2022-12-01T00:13:58.782Z,58.78
2022-12-01T00:14:30.853Z,58.65
2022-12-01T00:15:03.009Z,58.59
2022-12-01T00:15:39.585Z,58.63
2022-12-01T00:16:12.389Z,58.68
2022-12-01T00:16:44.871Z,58.53
2022-12-01T00:17:19.710Z,58.84
2022-12-01T00:17:51.905Z,59.00
2022-12-01T00:18:24.006Z,58.76
2022-12-01T00:18:59.195Z,58.96
2022-12-01T00:19:31.383Z,58.78
2022-12-01T00:20:04.860Z,59.03
2022-12-01T00:20:40.243Z,58.32
2022-12-01T00:21:14.487Z,58.42
2022-12-01T00:21:49.430Z,58.49
2022-12-01T00:22:24.125Z,58.55
2022-12-01T00:22:57.004Z,58.64
2022-12-01T00:23:29.081Z,58.33
2022-12-01T00:24:03.797Z,58.51
2022-12-01T00:24:36.056Z,58.46
2022-12-01T00:25:08.450Z,58.87
2022-12-01T00:25:43.116Z,58.96
2022-12-01T00:26:16.655Z,58.95
2022-12-01T00:26:48.714Z,59.20
2022-12-01T00:27:23.377Z,59.05
2022-12-01T00:27:56.047Z,59.44
2022-12-01T00:28:28.104Z,59.41
2022-12-01T00:29:03.127Z,59.35
2022-12-01T00:29:35.726Z,59.04
2022-12-01T00:30:11.129Z,59.22
2022-12-01T00:30:45.813Z,58.82
2022-12-01T00:31:18.001Z,59.23
2022-12-01T00:31:50.173Z,58.98
2022-12-01T00:32:24.913Z,58.90
2022-12-01T00:32:57.013Z,58.88
2022-12-01T00:33:29.090Z,59.37
2022-12-01T00:34:08.227Z,59.44
2022-12-01T00:34:43.295Z,59.32
2022-12-01T00:35:17.011Z,59.55
2022-12-01T00:35:51.704Z,59.02
2022-12-01T00:36:24.465Z,59.35
2022-12-01T00:36:59.236Z,58.83
2022-12-01T00:37:32.297Z,58.98
2022-12-01T00:38:06.941Z,59.50
2022-12-01T00:38:39.383Z,59.74
2022-12-01T00:39:11.470Z,59.33
2022-12-01T00:39:46.471Z,59.26
2022-12-01T00:40:18.805Z,59.00
2022-12-01T00:40:50.899Z,59.01
2022-12-01T00:41:27.494Z,58.89
2022-12-01T00:41:59.594Z,58.68
2022-12-01T00:42:31.897Z,58.63
2022-12-01T00:43:06.625Z,59.21
2022-12-01T00:43:39.828Z,59.12
2022-12-01T00:44:12.503Z,58.84
2022-12-01T00:44:47.317Z,58.91
2022-12-01T00:45:19.396Z,59.45
2022-12-01T00:45:52.344Z,59.07
2022-12-01T00:46:29.004Z,59.21
2022-12-01T00:47:01.132Z,59.73
2022-12-01T00:47:33.204Z,59.64
2022-12-01T00:48:08.063Z,59.44
2022-12-01T00:48:40.267Z,59.61
2022-12-01T00:49:14.014Z,59.05
2022-12-01T00:49:49.285Z,59.18
2022-12-01T00:50:21.490Z,59.04
2022-12-01T00:50:54.963Z,59.40
2022-12-01T00:51:30.253Z,59.53
2022-12-01T00:52:05.246Z,60.06
2022-12-01T00:52:37.473Z,59.80
2022-12-01T00:53:12.166Z,60.02
2022-12-01T00:53:44.252Z,60.00
2022-12-01T00:54:16.405Z,59.66
2022-12-01T00:54:51.105Z,59.91
2022-12-01T00:55:23.184Z,59.34
2022-12-01T00:55:55.446Z,59.53
2022-12-01T00:56:30.107Z,59.00
2022-12-01T00:57:02.189Z,59.18
2022-12-01T00:57:34.250Z,59.14
2022-12-01T00:58:10.049Z,59.20
2022-12-01T00:58:42.145Z,59.22
2022-12-01T00:59:14.364Z,59.13
2022-12-01T00:59:49.270Z,58.64
2022-12-01T01:00:21.865Z,59.10
2022-12-01T01:00:58.153Z,59.43
2022-12-01T01:01:32.946Z,59.53
2022-12-01T01:02:07.026Z,59.64
2022-12-01T01:02:42.017Z,59.58
2022-12-01T01:03:14.143Z,59.71
2022-12-01T01:03:46.217Z,59.59
2022-12-01T01:04:20.969Z,59.82
2022-12-01T01:04:53.064Z,59.38
2022-12-01T01:05:25.217Z,59.51
2022-12-01T01:06:06.182Z,60.10
2022-12-01T01:06:38.274Z,59.90
2022-12-01T01:07:12.948Z,59.83
2022-12-01T01:07:47.771Z,60.25
2022-12-01T01:08:20.010Z,59.74
2022-12-01T01:08:52.108Z,59.69
2022-12-01T01:09:26.830Z,60.04
2022-12-01T01:09:58.936Z,59.82
2022-12-01T01:10:31.046Z,59.74
2022-12-01T01:11:06.772Z,59.77
2022-12-01T01:11:38.875Z,59.23
2022-12-01T01:12:10.994Z,59.78
2022-12-01T01:12:45.665Z,59.94
2022-12-01T01:13:18.893Z,59.12
2022-12-01T01:13:51.225Z,58.91
2022-12-01T01:14:26.158Z,59.38
2022-12-01T01:14:58.223Z,59.40
2022-12-01T01:15:30.346Z,58.89
2022-12-01T01:16:07.369Z,59.17
2022-12-01T01:16:39.521Z,59.31
2022-12-01T01:17:11.719Z,59.62
2022-12-01T01:17:46.388Z,59.74
2022-12-01T01:18:18.526Z,60.18
2022-12-01T01:18:50.623Z,59.79
2022-12-01T01:19:26.492Z,59.55
2022-12-01T01:19:58.545Z,59.57
2022-12-01T01:20:31.212Z,59.63
2022-12-01T01:21:08.488Z,59.66
2022-12-01T01:21:43.045Z,59.35
2022-12-01T01:22:17.708Z,59.39
2022-12-01T01:22:52.374Z,59.76
2022-12-01T01:23:24.725Z,59.73
2022-12-01T01:23:56.833Z,59.35
2022-12-01T01:24:31.504Z,59.60
2022-12-01T01:25:03.830Z,59.24
2022-12-01T01:25:36.586Z,59.79
2022-12-01T01:26:11.335Z,59.79
2022-12-01T01:26:46.022Z,59.57
2022-12-01T01:27:18.206Z,59.54
2022-12-01T01:27:50.565Z,59.53
2022-12-01T01:28:25.211Z,59.37
2022-12-01T01:28:58.580Z,59.62
2022-12-01T01:29:30.636Z,59.33
2022-12-01T01:30:05.354Z,59.62
2022-12-01T01:30:39.749Z,59.33
2022-12-01T01:31:13.811Z,59.15
2022-12-01T01:31:48.498Z,58.94
2022-12-01T01:32:20.558Z,59.23
2022-12-01T01:32:52.776Z,59.34
2022-12-01T01:33:27.777Z,59.67
2022-12-01T01:33:59.929Z,59.63
2022-12-01T01:34:34.715Z,59.44
2022-12-01T01:35:08.335Z,59.81
2022-12-01T01:35:40.451Z,59.60
2022-12-01T01:36:16.509Z,60.05
2022-12-01T01:36:49.123Z,59.54
2022-12-01T01:37:23.771Z,59.22
2022-12-01T01:37:58.492Z,59.60
2022-12-01T01:38:31.214Z,59.24
2022-12-01T01:39:03.782Z,59.10
2022-12-01T01:39:38.463Z,59.49
2022-12-01T01:40:11.688Z,59.30
2022-12-01T01:40:44.798Z,59.79
2022-12-01T01:41:16.952Z,59.50
2022-12-01T01:41:51.635Z,59.30
2022-12-01T01:42:23.794Z,59.11
2022-12-01T01:42:55.854Z,59.60
2022-12-01T01:43:41.361Z,59.71
2022-12-01T01:44:46.163Z,59.80
2022-12-01T01:45:22.389Z,60.00
2022-12-01T01:45:54.604Z,60.29
2022-12-01T01:46:31.078Z,60.15
2022-12-01T01:47:03.202Z,60.02
2022-12-01T01:47:37.429Z,59.63
2022-12-01T01:48:10.409Z,59.38
2022-12-01T01:48:48.238Z,59.73
2022-12-01T01:49:20.440Z,59.87
2022-12-01T01:49:53.688Z,60.19
2022-12-01T01:50:31.184Z,59.72
2022-12-01T01:51:04.008Z,59.65
2022-12-01T01:51:40.910Z,59.78
2022-12-01T01:52:16.378Z,59.82
2022-12-01T01:52:55.968Z,59.15
2022-12-01T01:53:28.311Z,59.62
2022-12-01T01:54:08.829Z,59.62
2022-12-01T01:54:42.660Z,59.62
2022-12-01T01:55:15.820Z,59.60
2022-12-01T01:55:50.577Z,59.40
2022-12-01T01:56:23.329Z,59.37
2022-12-01T01:56:57.807Z,59.78
2022-12-01T01:57:35.794Z,59.53
2022-12-01T01:58:10.400Z,59.68
2022-12-01T01:58:42.758Z,59.57
2022-12-01T01:59:22.964Z,59.33
2022-12-01T01:59:59.377Z,59.52
2022-12-01T02:00:31.725Z,59.66
2022-12-01T02:01:07.441Z,60.20
2022-12-01T02:01:39.634Z,59.71
2022-12-01T02:02:13.182Z,59.83
2022-12-01T02:02:50.405Z,60.12
2022-12-01T02:03:22.709Z,60.17
2022-12-01T02:03:55.485Z,59.80
2022-12-01T02:04:31.534Z,59.65
2022-12-01T02:05:03.830Z,59.89
2022-12-01T02:05:37.341Z,59.75
2022-12-01T02:06:13.814Z,59.38
2022-12-01T02:06:46.305Z,59.56
2022-12-01T02:07:19.932Z,59.57
2022-12-01T02:08:00.076Z,59.65
2022-12-01T02:08:34.632Z,60.11
2022-12-01T02:09:06.705Z,59.62
2022-12-01T02:09:41.373Z,59.59
2022-12-01T02:10:15.407Z,59.56
2022-12-01T02:11:04.620Z,59.79
2022-12-01T02:11:55.278Z,59.80
2022-12-01T02:12:36.739Z,59.79
2022-12-01T02:13:18.336Z,59.74
2022-12-01T02:13:59.715Z,60.15
2022-12-01T02:14:49.859Z,59.95
2022-12-01T02:15:36.283Z,59.89
2022-12-01T02:16:14.668Z,60.23
2022-12-01T02:16:58.739Z,60.20
2022-12-01T02:17:41.686Z,59.89
2022-12-01T02:18:25.563Z,59.86
2022-12-01T02:19:12.017Z,60.44
2022-12-01T02:20:10.924Z,60.05
2022-12-01T02:21:15.213Z,60.34
2022-12-01T02:22:01.795Z,60.37
2022-12-01T02:22:52.278Z,59.98
2022-12-01T02:23:51.438Z,60.11
2022-12-01T02:25:07.140Z,60.00
2022-12-01T02:25:51.396Z,59.81
2022-12-01T02:26:39.666Z,59.99
2022-12-01T02:27:25.526Z,60.10
2022-12-01T02:28:29.991Z,60.17
2022-12-01T02:29:32.882Z,59.91
2022-12-01T02:30:13.698Z,60.13
2022-12-01T02:30:51.033Z,59.90
2022-12-01T02:31:26.940Z,59.81
2022-12-01T02:32:10.631Z,59.77
2022-12-01T02:32:55.256Z,59.56
2022-12-01T02:33:37.627Z,60.22
2022-12-01T02:34:15.274Z,60.15
2022-12-01T02:34:57.332Z,59.74
2022-12-01T02:35:37.247Z,60.10
2022-12-01T02:36:15.917Z,59.91
2022-12-01T02:36:54.447Z,59.82
2022-12-01T02:37:37.042Z,60.11
2022-12-01T02:38:16.489Z,59.91
2022-12-01T02:38:57.302Z,59.49
2022-12-01T02:39:32.993Z,59.96
2022-12-01T02:40:15.206Z,59.47
2022-12-01T02:40:55.929Z,59.54
2022-12-01T02:41:32.991Z,60.00
2022-12-01T02:42:10.475Z,60.14
2022-12-01T02:42:59.723Z,59.83
2022-12-01T02:43:38.406Z,59.87
2022-12-01T02:44:19.690Z,59.89
2022-12-01T02:44:53.267Z,59.55
2022-12-01T02:45:35.287Z,59.69
2022-12-01T02:46:17.836Z,59.50
2022-12-01T02:46:53.240Z,59.84
2022-12-01T02:47:25.881Z,59.73
2022-12-01T02:48:04.570Z,59.16
2022-12-01T02:48:43.129Z,59.20
2022-12-01T02:49:19.795Z,59.16
2022-12-01T02:49:57.378Z,59.40
2022-12-01T02:50:32.968Z,59.65
2022-12-01T02:51:12.850Z,59.17
2022-12-01T02:51:45.981Z,59.36
2022-12-01T02:52:20.044Z,59.15
2022-12-01T02:52:56.126Z,59.22
2022-12-01T02:53:28.429Z,59.45
2022-12-01T02:54:05.246Z,59.10
2022-12-01T02:54:38.578Z,58.85
2022-12-01T02:55:10.686Z,59.38
2022-12-01T02:55:54.198Z,59.04
2022-12-01T02:56:26.690Z,58.97
2022-12-01T02:56:59.121Z,59.35
2022-12-01T02:57:33.882Z,59.01
2022-12-01T02:58:14.484Z,59.07
2022-12-01T02:58:49.134Z,59.06
2022-12-01T02:59:21.297Z,59.03
2022-12-01T02:59:55.666Z,58.88
2022-12-01T03:00:33.154Z,59.15
2022-12-01T03:01:24.516Z,59.17
2022-12-01T03:02:13.428Z,59.34
2022-12-01T03:03:02.707Z,59.01
2022-12-01T03:03:53.858Z,59.20
2022-12-01T03:04:51.718Z,59.52
2022-12-01T03:05:29.183Z,59.38
2022-12-01T03:06:12.666Z,59.25
2022-12-01T03:06:58.025Z,59.78
2022-12-01T03:07:43.757Z,59.41
2022-12-01T03:08:29.279Z,59.67
2022-12-01T03:09:09.637Z,59.99
2022-12-01T03:09:47.067Z,59.82
2022-12-01T03:10:30.152Z,59.59
2022-12-01T03:11:03.144Z,59.51
2022-12-01T03:11:44.217Z,59.31
2022-12-01T03:12:27.555Z,59.60
2022-12-01T03:13:10.518Z,59.77
2022-12-01T03:13:52.207Z,59.65
2022-12-01T03:14:37.194Z,59.89
2022-12-01T03:15:13.231Z,60.13
2022-12-01T03:15:54.333Z,59.95
2022-12-01T03:16:39.390Z,59.84
2022-12-01T03:17:16.671Z,59.57
2022-12-01T03:17:57.838Z,59.57
2022-12-01T03:18:35.755Z,59.57
2022-12-01T03:19:13.698Z,59.99
2022-12-01T03:19:55.486Z,59.81
2022-12-01T03:20:35.433Z,60.20
2022-12-01T03:21:10.535Z,59.95
2022-12-01T03:21:50.793Z,60.37
2022-12-01T03:22:27.209Z,59.96
2022-12-01T03:23:04.844Z,59.96
2022-12-01T03:23:43.886Z,59.98
2022-12-01T03:24:19.572Z,60.36
2022-12-01T03:24:55.284Z,60.32
2022-12-01T03:25:33.021Z,60.26
2022-12-01T03:26:07.429Z,60.54
2022-12-01T03:26:41.661Z,60.35
2022-12-01T03:27:21.407Z,60.26
2022-12-01T03:28:20.147Z,60.47
2022-12-01T03:28:52.643Z,59.94
2022-12-01T03:29:30.993Z,59.98
2022-12-01T03:30:04.509Z,59.91
2022-12-01T03:30:38.093Z,59.79
2022-12-01T03:31:18.641Z,59.97
2022-12-01T03:31:56.973Z,59.81
2022-12-01T03:32:33.745Z,60.18
2022-12-01T03:33:13.083Z,59.77
2022-12-01T03:33:49.349Z,60.16
2022-12-01T03:34:32.674Z,60.20
2022-12-01T03:35:10.975Z,59.91
2022-12-01T03:35:51.656Z,59.87
2022-12-01T03:36:28.000Z,59.99
2022-12-01T03:37:04.894Z,60.09
2022-12-01T03:37:43.778Z,60.19
2022-12-01T03:38:20.808Z,60.30
2022-12-01T03:39:00.215Z,60.45
2022-12-01T03:39:38.369Z,60.38
2022-12-01T03:40:15.292Z,60.30
2022-12-01T03:40:50.998Z,60.07
2022-12-01T03:41:28.896Z,60.15
2022-12-01T03:42:06.826Z,60.07
2022-12-01T03:42:46.001Z,60.38
2022-12-01T03:43:22.544Z,60.11
2022-12-01T03:44:02.206Z,60.10
2022-12-01T03:44:42.721Z,59.78
2022-12-01T03:45:18.141Z,59.94
2022-12-01T03:45:55.603Z,60.25
2022-12-01T03:46:41.270Z,60.22
2022-12-01T03:47:19.373Z,60.09
2022-12-01T03:47:51.864Z,59.83
2022-12-01T03:48:27.449Z,60.08
2022-12-01T03:48:59.590Z,60.17
2022-12-01T03:49:32.958Z,60.26
2022-12-01T03:50:13.338Z,59.85
2022-12-01T03:50:53.423Z,60.25
2022-12-01T03:51:33.893Z,59.84
2022-12-01T03:52:13.299Z,60.14
2022-12-01T03:52:49.829Z,60.00
2022-12-01T03:53:27.671Z,60.23
2022-12-01T03:54:08.251Z,59.95
2022-12-01T03:54:52.313Z,59.89
2022-12-01T03:55:27.930Z,60.20
2022-12-01T03:56:07.261Z,60.19
2022-12-01T03:56:48.316Z,60.11
2022-12-01T03:57:26.673Z,60.02
2022-12-01T03:58:08.403Z,60.29
2022-12-01T03:58:45.007Z,60.09
2022-12-01T03:59:20.758Z,60.04
2022-12-01T03:59:56.644Z,59.95
2022-12-01T04:00:29.941Z,59.89
2022-12-01T04:01:03.100Z,59.85
2022-12-01T04:01:38.394Z,60.41
2022-12-01T04:02:10.673Z,60.21
2022-12-01T04:02:46.145Z,60.30
2022-12-01T04:03:22.311Z,60.21
2022-12-01T04:03:54.386Z,59.98
2022-12-01T04:04:26.456Z,60.43
2022-12-01T04:05:01.110Z,60.37
2022-12-01T04:05:34.972Z,60.29
2022-12-01T04:06:08.062Z,59.82
2022-12-01T04:06:43.359Z,59.71
2022-12-01T04:07:18.055Z,60.14
2022-12-01T04:07:50.276Z,60.17
2022-12-01T04:08:22.405Z,60.12
2022-12-01T04:08:57.037Z,59.82
2022-12-01T04:09:29.184Z,60.22
2022-12-01T04:10:03.888Z,60.08
2022-12-01T04:10:36.013Z,59.97
2022-12-01T04:11:22.965Z,60.00
2022-12-01T04:12:10.058Z,60.19
2022-12-01T04:12:42.210Z,60.04
2022-12-01T04:13:22.731Z,60.27
2022-12-01T04:13:57.401Z,60.10
2022-12-01T04:14:30.185Z,60.46
2022-12-01T04:15:08.099Z,59.98
2022-12-01T04:15:40.238Z,59.94
2022-12-01T04:16:12.389Z,60.23
2022-12-01T04:16:47.222Z,60.39
2022-12-01T04:17:19.411Z,59.97
2022-12-01T04:17:54.446Z,60.08
2022-12-01T04:18:29.213Z,60.06
2022-12-01T04:19:01.290Z,60.41
2022-12-01T04:19:33.365Z,60.42
2022-12-01T04:20:10.757Z,60.42
2022-12-01T04:20:43.527Z,60.17
2022-12-01T04:21:15.606Z,60.03
2022-12-01T04:21:50.256Z,59.97
2022-12-01T04:22:23.202Z,60.37
2022-12-01T04:22:55.360Z,60.18
2022-12-01T04:23:42.574Z,60.10
2022-12-01T04:24:17.642Z,60.05
2022-12-01T04:24:49.792Z,60.16
2022-12-01T04:25:21.846Z,60.47
2022-12-01T04:25:59.130Z,60.32
2022-12-01T04:26:36.513Z,60.28
2022-12-01T04:27:08.708Z,60.39
2022-12-01T04:27:40.802Z,60.52
2022-12-01T04:28:15.578Z,60.33
2022-12-01T04:28:47.972Z,60.34
2022-12-01T04:29:20.262Z,60.07
2022-12-01T04:29:54.954Z,60.37
2022-12-01T04:30:27.070Z,60.55
2022-12-01T04:30:59.199Z,60.25
2022-12-01T04:31:34.344Z,60.65
2022-12-01T04:32:06.693Z,60.46
2022-12-01T04:32:42.734Z,60.31
2022-12-01T04:33:17.450Z,60.44
2022-12-01T04:33:49.616Z,60.53
2022-12-01T04:34:24.433Z,60.93
2022-12-01T04:34:56.545Z,60.68
2022-12-01T04:35:28.650Z,60.38
2022-12-01T04:36:04.068Z,60.69
2022-12-01T04:36:36.338Z,60.39
2022-12-01T04:37:13.010Z,60.44
2022-12-01T04:37:45.133Z,60.55
2022-12-01T04:38:17.277Z,60.16
2022-12-01T04:38:49.536Z,60.39
2022-12-01T04:39:24.329Z,60.28
2022-12-01T04:39:56.415Z,60.23
2022-12-01T04:40:28.468Z,60.48
2022-12-01T04:41:03.144Z,60.09
2022-12-01T04:41:35.229Z,60.57
2022-12-01T04:42:07.332Z,60.30
2022-12-01T04:42:42.040Z,60.63
2022-12-01T04:43:14.137Z,60.74
2022-12-01T04:43:46.193Z,60.60
2022-12-01T04:44:18.390Z,60.71
2022-12-01T04:44:53.089Z,60.50
2022-12-01T04:45:25.149Z,60.58
2022-12-01T04:45:57.201Z,60.45
2022-12-01T04:46:29.389Z,60.20
2022-12-01T04:47:04.412Z,60.18
2022-12-01T04:47:36.632Z,60.40
2022-12-01T04:48:08.759Z,60.52
2022-12-01T04:48:43.641Z,60.46
2022-12-01T04:49:18.358Z,60.39
2022-12-01T04:49:50.692Z,60.57
2022-12-01T04:50:23.155Z,60.48
2022-12-01T04:50:55.604Z,60.24
2022-12-01T04:51:30.282Z,60.67
2022-12-01T04:52:02.403Z,60.36
2022-12-01T04:52:37.293Z,60.22
2022-12-01T04:53:11.973Z,60.28
2022-12-01T04:53:44.036Z,60.40
2022-12-01T04:54:19.097Z,60.82
2022-12-01T04:54:51.180Z,60.59
2022-12-01T04:55:23.249Z,60.32
2022-12-01T04:55:55.361Z,60.48
2022-12-01T04:56:30.048Z,60.52
2022-12-01T04:57:02.255Z,60.36
2022-12-01T04:57:36.931Z,60.59
2022-12-01T04:58:09.030Z,60.86
2022-12-01T04:58:41.181Z,60.89
2022-12-01T04:59:15.967Z,61.16
2022-12-01T04:59:48.587Z,60.83
2022-12-01T05:00:20.961Z,61.12
2022-12-01T05:00:53.088Z,60.78
2022-12-01T05:01:27.937Z,60.82
2022-12-01T05:02:00.163Z,60.85
2022-12-01T05:02:32.340Z,60.48
2022-12-01T05:03:12.119Z,60.77
2022-12-01T05:03:49.712Z,60.58
2022-12-01T05:04:24.370Z,60.54
2022-12-01T05:04:56.428Z,60.75
2022-12-01T05:05:28.493Z,60.33
2022-12-01T05:06:03.776Z,60.64
2022-12-01T05:06:38.469Z,60.37
2022-12-01T05:07:10.644Z,60.60
2022-12-01T05:07:42.712Z,60.91
2022-12-01T05:08:14.833Z,60.64
2022-12-01T05:08:50.261Z,60.38
2022-12-01T05:09:22.345Z,60.80
2022-12-01T05:09:55.185Z,60.85
2022-12-01T05:10:29.918Z,60.57
2022-12-01T05:11:02.938Z,60.68
2022-12-01T05:11:35.373Z,60.70
2022-12-01T05:12:10.166Z,60.84
2022-12-01T05:12:42.303Z,60.60
2022-12-01T05:13:14.371Z,60.84
2022-12-01T05:13:50.797Z,60.91
2022-12-01T05:14:22.875Z,61.05
2022-12-01T05:14:55.013Z,61.12
2022-12-01T05:15:29.695Z,61.14
2022-12-01T05:16:06.303Z,60.75
2022-12-01T05:16:38.683Z,60.99
2022-12-01T05:17:13.462Z,60.80
2022-12-01T05:17:45.532Z,60.96
2022-12-01T05:18:17.743Z,60.71
2022-12-01T05:19:18.029Z,60.91
2022-12-01T05:20:05.165Z,60.96
2022-12-01T05:20:52.337Z,61.29
2022-12-01T05:21:24.429Z,60.95
2022-12-01T05:21:56.550Z,61.04
2022-12-01T05:23:03.273Z,61.27
2022-12-01T05:23:23.400Z,61.01
2022-12-01T05:23:55.534Z,61.21
2022-12-01T05:24:30.290Z,61.19
2022-12-01T05:25:02.376Z,61.06
2022-12-01T05:25:34.725Z,61.24
2022-12-01T05:26:11.494Z,61.07
2022-12-01T05:26:44.691Z,61.40
2022-12-01T05:27:16.785Z,61.16
2022-12-01T05:27:48.906Z,61.05
2022-12-01T05:28:25.329Z,61.16
2022-12-01T05:28:57.448Z,60.83
2022-12-01T05:29:33.140Z,61.04
2022-12-01T05:30:06.765Z,60.96
2022-12-01T05:30:38.888Z,61.05
2022-12-01T05:31:13.580Z,60.78
2022-12-01T05:31:46.440Z,60.93
2022-12-01T05:32:18.545Z,60.89
2022-12-01T05:32:50.768Z,61.16
2022-12-01T05:33:26.621Z,60.96
2022-12-01T05:34:01.583Z,61.04
2022-12-01T05:34:36.298Z,61.19
2022-12-01T05:35:09.194Z,61.07
2022-12-01T05:35:41.489Z,61.17
2022-12-01T05:36:16.173Z,61.08
2022-12-01T05:36:48.287Z,60.91
2022-12-01T05:37:20.365Z,61.15
2022-12-01T05:37:55.617Z,60.67
2022-12-01T05:38:27.690Z,61.10
2022-12-01T05:38:59.912Z,60.90
2022-12-01T05:39:34.705Z,60.86
2022-12-01T05:40:08.348Z,60.79
2022-12-01T05:40:40.502Z,60.72
2022-12-01T05:41:12.570Z,60.79
2022-12-01T05:41:47.339Z,60.93
2022-12-01T05:42:19.418Z,61.14
2022-12-01T05:42:51.530Z,60.92
2022-12-01T05:43:29.456Z,61.07
2022-12-01T05:44:01.878Z,60.99
2022-12-01T05:44:33.952Z,60.87
2022-12-01T05:45:10.170Z,60.94
2022-12-01T05:45:42.350Z,61.32
2022-12-01T05:46:14.578Z,61.06
2022-12-01T05:46:49.494Z,61.01
2022-12-01T05:47:21.620Z,60.95
2022-12-01T05:47:55.136Z,61.13
2022-12-01T05:48:27.232Z,60.65
2022-12-01T05:49:04.516Z,60.81
2022-12-01T05:49:36.584Z,60.88
2022-12-01T05:50:09.552Z,60.61
2022-12-01T05:50:44.375Z,60.83
2022-12-01T05:51:18.535Z,60.98
2022-12-01T05:51:50.638Z,61.04
2022-12-01T05:52:25.273Z,61.17
2022-12-01T05:52:57.684Z,61.11
2022-12-01T05:53:29.961Z,61.09
2022-12-01T05:54:04.977Z,60.98
2022-12-01T05:54:37.055Z,60.63
2022-12-01T05:55:09.854Z,60.90
2022-12-01T05:55:42.548Z,61.11
2022-12-01T05:56:17.251Z,60.83
2022-12-01T05:56:49.410Z,61.20
2022-12-01T05:57:21.569Z,60.60
2022-12-01T05:57:56.286Z,60.96
2022-12-01T05:58:28.777Z,60.81
2022-12-01T05:59:00.923Z,60.91
2022-12-01T05:59:35.623Z,60.79
2022-12-01T06:00:09.191Z,60.67
2022-12-01T06:00:46.171Z,60.80
2022-12-01T06:01:21.177Z,60.87
2022-12-01T06:01:53.445Z,61.00
2022-12-01T06:02:26.932Z,60.60
2022-12-01T06:03:02.170Z,60.90
2022-12-01T06:03:34.403Z,61.12
2022-12-01T06:04:11.774Z,60.77
2022-12-01T06:04:44.440Z,60.65
2022-12-01T06:05:16.731Z,60.73
2022-12-01T06:05:51.627Z,60.82
2022-12-01T06:06:23.698Z,61.06
2022-12-01T06:06:55.762Z,60.77
2022-12-01T06:07:30.847Z,60.86
2022-12-01T06:08:03.219Z,60.47
2022-12-01T06:08:35.452Z,61.00
2022-12-01T06:09:10.695Z,60.83
2022-12-01T06:09:42.810Z,60.92
2022-12-01T06:10:14.911Z,61.10
2022-12-01T06:10:49.964Z,61.08
2022-12-01T06:11:22.116Z,60.99
2022-12-01T06:11:54.217Z,60.70
2022-12-01T06:12:29.157Z,60.46
2022-12-01T06:13:01.278Z,60.76
2022-12-01T06:13:36.077Z,60.76
2022-12-01T06:14:08.422Z,60.44
2022-12-01T06:14:40.506Z,60.65
2022-12-01T06:15:15.809Z,60.76
2022-12-01T06:15:56.845Z,60.62
2022-12-01T06:16:31.576Z,60.59
2022-12-01T06:17:03.986Z,60.64
2022-12-01T06:17:40.254Z,60.88
2022-12-01T06:18:15.395Z,60.88
2022-12-01T06:18:47.567Z,60.75
2022-12-01T06:19:22.273Z,60.77
2022-12-01T06:19:56.941Z,60.78
2022-12-01T06:20:29.061Z,60.89
2022-12-01T06:21:04.062Z,61.17
2022-12-01T06:21:36.267Z,60.97
2022-12-01T06:22:08.354Z,61.35
2022-12-01T06:22:43.049Z,61.03
2022-12-01T06:23:15.227Z,60.78
2022-12-01T06:23:49.934Z,60.97
2022-12-01T06:24:22.010Z,60.92
2022-12-01T06:24:54.093Z,61.05
2022-12-01T06:25:28.886Z,61.11
2022-12-01T06:26:01.090Z,60.81
2022-12-01T06:26:33.295Z,60.98
2022-12-01T06:27:08.170Z,60.75
2022-12-01T06:27:40.272Z,60.80
2022-12-01T06:28:15.096Z,61.05
2022-12-01T06:28:47.335Z,60.70
2022-12-01T06:29:19.658Z,60.75
2022-12-01T06:29:54.439Z,60.58
2022-12-01T06:30:27.091Z,60.87
2022-12-01T06:31:03.659Z,60.34
2022-12-01T06:31:35.966Z,60.71
2022-12-01T06:32:08.150Z,60.92
2022-12-01T06:32:43.172Z,60.62
2022-12-01T06:33:15.263Z,60.48
2022-12-01T06:33:47.414Z,60.66
2022-12-01T06:34:24.746Z,60.69
2022-12-01T06:34:56.874Z,60.68
2022-12-01T06:35:29.000Z,60.82
2022-12-01T06:36:05.085Z,60.76
2022-12-01T06:36:37.182Z,60.70
2022-12-01T06:37:09.376Z,60.84
2022-12-01T06:37:44.054Z,60.60
2022-12-01T06:38:16.156Z,60.99
2022-12-01T06:38:50.977Z,60.64
2022-12-01T06:39:23.064Z,60.59
2022-12-01T06:39:57.763Z,60.50
2022-12-01T06:40:30.228Z,60.53
2022-12-01T06:41:02.850Z,60.66
2022-12-01T06:41:37.578Z,60.87
2022-12-01T06:42:10.002Z,60.33
2022-12-01T06:42:44.746Z,60.46
2022-12-01T06:43:16.836Z,60.70
2022-12-01T06:43:48.917Z,60.69
2022-12-01T06:44:23.585Z,60.83
2022-12-01T06:44:55.662Z,60.56
2022-12-01T06:45:27.860Z,60.25
2022-12-01T06:46:02.721Z,60.37
2022-12-01T06:46:34.984Z,60.53
2022-12-01T06:47:08.288Z,60.58
2022-12-01T06:47:43.357Z,60.79
2022-12-01T06:48:15.455Z,60.46
2022-12-01T06:48:48.939Z,60.82
2022-12-01T06:49:26.308Z,60.61
2022-12-01T06:49:58.497Z,60.76
2022-12-01T06:50:33.154Z,60.91
2022-12-01T06:51:05.628Z,60.47
2022-12-01T06:51:37.842Z,61.04
2022-12-01T06:52:13.141Z,60.93
2022-12-01T06:52:45.635Z,60.86
2022-12-01T06:53:17.906Z,61.05
2022-12-01T06:53:58.656Z,60.76
2022-12-01T06:54:34.604Z,60.89
2022-12-01T06:55:07.540Z,60.82
2022-12-01T06:55:42.611Z,60.88
2022-12-01T06:56:15.188Z,60.80
2022-12-01T06:56:47.525Z,61.01
2022-12-01T06:57:22.460Z,60.87
2022-12-01T06:57:55.024Z,60.84
2022-12-01T06:58:27.437Z,60.81
2022-12-01T06:59:02.517Z,60.90
2022-12-01T06:59:35.101Z,60.97
2022-12-01T07:00:11.338Z,61.06
2022-12-01T07:00:47.692Z,60.94
2022-12-01T07:01:24.131Z,61.30
2022-12-01T07:01:59.192Z,61.21
2022-12-01T07:02:31.370Z,61.27
2022-12-01T07:03:03.599Z,61.33
2022-12-01T07:03:38.271Z,61.01
2022-12-01T07:04:10.386Z,60.76
2022-12-01T07:04:45.060Z,60.98
2022-12-01T07:05:19.894Z,61.01
2022-12-01T07:05:56.400Z,60.99
2022-12-01T07:06:30.108Z,61.32
2022-12-01T07:07:04.768Z,61.09
2022-12-01T07:07:37.482Z,61.24
2022-12-01T07:08:09.751Z,61.31
2022-12-01T07:08:44.730Z,61.51
2022-12-01T07:09:16.830Z,61.35
2022-12-01T07:09:51.895Z,61.00
2022-12-01T07:10:24.126Z,61.36
2022-12-01T07:11:00.305Z,61.24
2022-12-01T07:11:36.596Z,61.07
2022-12-01T07:12:08.716Z,61.28
2022-12-01T07:12:43.609Z,61.00
2022-12-01T07:13:15.762Z,60.82
2022-12-01T07:13:50.981Z,60.92
2022-12-01T07:14:25.178Z,60.76
2022-12-01T07:15:00.385Z,60.85
2022-12-01T07:15:32.472Z,61.33
2022-12-01T07:16:08.087Z,61.01
2022-12-01T07:16:40.244Z,61.66
2022-12-01T07:17:14.994Z,61.47
2022-12-01T07:17:47.065Z,61.28
2022-12-01T07:18:19.230Z,61.18
2022-12-01T07:18:53.922Z,60.70
2022-12-01T07:19:26.161Z,60.55
2022-12-01T07:20:01.010Z,60.85
2022-12-01T07:20:35.674Z,60.78
2022-12-01T07:21:10.687Z,60.57
2022-12-01T07:21:42.852Z,61.04
2022-12-01T07:22:17.964Z,61.11
2022-12-01T07:22:50.094Z,60.67
2022-12-01T07:23:22.218Z,61.20
2022-12-01T07:23:57.557Z,60.67
2022-12-01T07:24:29.890Z,60.85
2022-12-01T07:25:02.266Z,60.61
2022-12-01T07:25:37.073Z,60.73
2022-12-01T07:26:11.807Z,60.44
2022-12-01T07:26:44.178Z,60.66
2022-12-01T07:27:18.841Z,60.65
2022-12-01T07:27:50.926Z,60.59
2022-12-01T07:28:25.668Z,60.69
2022-12-01T07:28:58.034Z,60.43
2022-12-01T07:29:32.718Z,60.75
2022-12-01T07:30:06.673Z,60.74
2022-12-01T07:30:39.348Z,60.42
2022-12-01T07:31:16.834Z,60.51
2022-12-01T07:31:48.941Z,60.60
2022-12-01T07:32:23.596Z,60.71
2022-12-01T07:32:55.707Z,60.59
2022-12-01T07:33:27.910Z,60.40
2022-12-01T07:34:02.561Z,60.40
2022-12-01T07:34:34.752Z,60.30
2022-12-01T07:35:12.969Z,60.32